Main page
METAR-TAF:

METAR-TAF

Airports :

Maastricht Aachen Airport

Maastricht Aachen, Netherlands

latitude: 50-55N, longitude: 005-47E, elevation: 114 m

Current weather observation

The report was made 20 minutes ago, at 15:55 UTC
Wind 17 kt from the Southwest
Temperature 9°C
Humidity 66%
Pressure 1025 hPa
Visibility 10 km or more

METAR: EHBK 211555Z AUTO 23017KT 9999 BKN034/// OVC038/// 09/03 Q1025 NOSIG

Time: 17:15 (16:15 UTC)

Forecast

The report was made 5 hours and 20 minutes ago, at 10:55 UTC
Forecast valid from 21 at 12 UTC to 22 at 18 UTC
Wind 15 kt from the Southwest with gusts up to 25 kt
Visibility 10 km or more
Few clouds at a height of 2500 ft
Probability 40% :
Temporary
from 22 at 10 UTC to 22 at 16 UTC
Visibility: 6000 m
light rain
Probability 40% :
Temporary
from 22 at 16 UTC to 22 at 18 UTC
Visibility: 4000 m
Broken clouds at a height of 1400 ft
rain, drizzle

TAF: EHBK 211055Z 2112/2218 23015G25KT 9999 FEW025 PROB40 TEMPO 2210/2216 6000 -RA PROB40 TEMPO 2216/2218 4000 RADZ BKN014

Weather observations and forecasts of more than 4000 airports (METAR and TAF reports).

The available stations are represented by yellow and red dots on the map.

Hover mouse over dot to see the name of the station.

Then click to see weather observations and forecasts.

To change the map : click on the green buttons with a black cross to zoom in, on the green button with a dash to zoom out, or on the green arrows for adjacent maps.


METAR-TAF: